• Join FlightAware (Why Join?)
  • Login
  • US Flag 
09:02PM EST


 

Airport Tracker/Info


-or-


 

Live Flight TrackerFlight Track Log ✈ WJA570 ✈ 28-Aug-2013 ✈ CYVR - CYYC

Flight Track Log - Related Links

Times and Time Zones

All times are in EDT time to prevent confusion due to time zone crossing. See the WJA570 flight status page for this flight to view local times or setup timezone preferences in your user account.

Time Position Orientation Groundspeed Altitude Reporting Facility
EDT Latitude Longitude Course Direction KTS MPH feet Rate Location/Type
10:29AM 49.1667 -123.1333 68° East 160 184 1,300  Level Vancouver Center
10:34AM 49.4590 -122.1352 68° East  Level Estimated
10:35AM 49.0000 -122.3990 68° East 427 491 15,500  Level FlightAware
10:35AM 49.0010 -122.2890 89° East 439 505 17,100 2,760 Climbing FlightAware
10:36AM 49.0010 -122.1930 90° East 444 511 18,600 3,060 Climbing FlightAware
10:37AM 49.0030 -122.0730 88° East 440 506 20,600 3,420 Climbing FlightAware
10:37AM 49.0060 -121.9730 87° East 427 491 22,600 3,120 Climbing FlightAware
10:38AM 49.0090 -121.8570 88° East 427 491 24,400 2,400 Climbing FlightAware
10:38AM 49.0110 -121.7570 88° East 433 498 25,500 1,620 Climbing FlightAware
10:39AM 49.0130 -121.6440 88° East 449 517 26,300 1,140 Climbing FlightAware
10:40AM 49.0160 -121.5290 88° East 467 537 26,900 540 Climbing FlightAware
10:40AM 49.0180 -121.4080 89° East 481 554 27,000 600 Climbing FlightAware
10:41AM 49.0200 -121.2970 88° East 484 557 27,600 1,740 Climbing FlightAware
10:41AM 49.0260 -121.1910 85° East 481 554 28,900 1,260 Climbing FlightAware
10:42AM 49.0460 -121.0860 74° East 492 566 29,000 60 Climbing FlightAware
10:42AM 49.0830 -120.9610 66° East 494 568 29,000  Level FlightAware
10:43AM 49.1150 -120.8540 65° Northeast 498 573 29,000 1,260 Level FlightAware
10:44AM 49.1490 -120.7390 66° East 483 556 30,500 2,940 Climbing FlightAware
10:44AM 49.1830 -120.6250 65° Northeast 462 532 32,500 2,100 Climbing FlightAware
10:45AM 49.2120 -120.5300 65° Northeast 470 541 33,000 780 Climbing FlightAware
10:45AM 49.2430 -120.4240 66° East 481 554 33,400 1,140 Climbing FlightAware
10:46AM 49.2760 -120.3110 66° East 478 550 34,400 1,200 Climbing FlightAware
10:47AM 49.3080 -120.2000 66° East 488 562 34,900 480 Climbing FlightAware
10:47AM 49.3400 -120.0880 66° East 501 577 35,000 60 Climbing FlightAware
10:48AM 49.3730 -119.9740 66° East 503 579 35,000  Level FlightAware
10:49AM 49.4000 -119.7667 66° East 500 575 35,000  Level Vancouver Center
10:50AM 49.4667 -119.5667 63° Northeast 500 575 35,000  Level Vancouver Center
10:51AM 49.5167 -119.3667 69° East 500 575 35,000  Level Vancouver Center
10:52AM 49.5833 -119.1667 63° Northeast 500 575 35,000  Level Vancouver Center
10:53AM 49.6333 -118.9833 67° East 500 575 35,000  Level Vancouver Center
10:54AM 49.6833 -118.7833 69° East 500 575 35,000  Level Vancouver Center
10:55AM 49.7333 -118.5833 69° East 500 575 35,000  Level Vancouver Center
11:01AM 50.0760 -117.3930 69° East 507 583 35,000  Level FlightAware
11:01AM 50.1070 -117.2700 69° East 507 583 35,000  Level FlightAware
11:02AM 50.1440 -117.1270 68° East 508 585 35,000 -120 Level FlightAware
11:06AM 50.3660 -116.2380 68° East 511 588 34,400 -240 Descending FlightAware
11:07AM 50.3900 -116.1380 69° East 511 588 34,000 -1,080 Descending FlightAware
11:08AM 50.4250 -115.9830 70° East 514 592 33,100 -1,560 Descending FlightAware
11:08AM 50.4510 -115.8610 71° East 517 595 32,000 -2,700 Descending FlightAware
11:09AM 50.4780 -115.7350 71° East 516 594 30,000 -2,760 Descending FlightAware
11:09AM 50.5040 -115.6160 71° East 500 575 28,800 -2,340 Descending FlightAware
11:10AM 50.5300 -115.4960 71° East 484 557 27,300 -2,700 Descending FlightAware
11:10AM 50.5550 -115.3810 71° East 482 555 25,700 -3,120 Descending FlightAware
11:11AM 50.5920 -115.2070 71° East 498 573 22,900 -3,120 Descending FlightAware
11:12AM 50.6170 -115.0880 72° East 495 570 21,300 -2,520 Descending FlightAware
11:12AM 50.6420 -114.9700 71° East 482 555 20,000 -2,100 Descending FlightAware
11:13AM 50.6670 -114.8550 71° East 475 547 18,900 -1,620 Descending FlightAware
11:14AM 50.6910 -114.7390 72° East 469 540 18,100 -1,740 Descending FlightAware
11:14AM 50.7220 -114.6340 65° Northeast 462 532 16,900 -2,040 Descending FlightAware
11:15AM 50.7720 -114.5420 49° Northeast 451 519 15,800 -1,680 Descending FlightAware
11:15AM 50.8190 -114.4570 49° Northeast 426 490 15,000 -2,400 Descending FlightAware
11:16AM 50.8640 -114.3760 49° Northeast 425 489 13,000 -3,300 Descending FlightAware
11:17AM 50.9100 -114.2950 48° Northeast 423 487 11,200 -3,000 Descending FlightAware
11:17AM 50.9270 -114.2780 32° Northeast 414 476 10,700 -1,440 Descending FlightAware
11:17AM 50.9990 -114.2520 13° North 374 430 10,000 -780 Descending FlightAware
11:18AM 51.0230 -114.2450 10° North 356 410 10,000 -300 Level FlightAware
11:18AM 51.0390 -114.2420 North 342 394 9,900 -480 Descending FlightAware
11:18AM 51.0690 -114.2520 348° North 312 359 9,800 -420 Descending FlightAware
11:18AM 51.0810 -114.2640 328° Northwest 299 344 9,700 -600 Descending FlightAware
11:18AM 51.0910 -114.2780 319° Northwest 283 326 9,600 -1,080 Descending FlightAware
11:19AM 51.1170 -114.3100 322° Northwest 279 321 9,100 -1,080 Descending FlightAware
11:19AM 51.1270 -114.3230 321° Northwest 276 318 9,000 -960 Descending FlightAware
11:19AM 51.1430 -114.3410 325° Northwest 284 327 8,700 -1,200 Descending FlightAware
11:19AM 51.1560 -114.3460 346° North 278 320 8,500 -1,500 Descending FlightAware
11:20AM 51.1630 -114.3460 360° North 287 330 8,300 -1,080 Descending FlightAware
11:20AM 51.1760 -114.3410 14° North 276 318 8,200 -420 Descending FlightAware
11:20AM 51.1820 -114.3360 28° Northeast 280 322 8,200 -720 Level FlightAware
11:20AM 51.1870 -114.3290 41° Northeast 270 311 8,100 -900 Descending FlightAware
11:20AM 51.1940 -114.3160 49° Northeast 271 312 8,000 -480 Descending FlightAware
11:20AM 51.1970 -114.3060 64° Northeast 266 306 8,000 -840 Level FlightAware
11:20AM 51.2000 -114.2870 76° East 260 299 7,800 -1,440 Descending FlightAware
11:21AM 51.2010 -114.2600 87° East 253 291 7,400 -1,920 Descending FlightAware
11:21AM 51.1950 -114.2240 105° East 236 272 6,700 -2,220 Descending FlightAware
11:21AM 51.1830 -114.1940 123° Southeast 236 272 5,900 -2,580 Descending FlightAware
11:21AM 51.1760 -114.1720 117° Southeast 233 268 5,200 -1,620 Descending FlightAware
11:22AM 51.1660 -114.1430 119° Southeast 204 235 5,000 -780 Descending FlightAware
11:22AM 51.1570 -114.1190 121° Southeast 181 208 4,700 -900 Descending FlightAware
11:22AM 51.1490 -114.0980 121° Southeast 164 189 4,400 -960 Descending FlightAware
11:23AM 51.1400 -114.0720 119° Southeast 152 175 4,000 -780 Descending FlightAware
11:23AM 51.1350 -114.0600 124° Southeast 149 171 3,900 -720 Descending FlightAware
11:23AM 51.1270 -114.0380 120° Southeast 148 170 3,600 -900 Descending FlightAware
11:24AM 51.1210 -114.0200 118° Southeast 115 132 -10,800 Descending FlightAware